sensor_id;sensor_type;location;lat;lon;timestamp;P1;durP1;ratioP1;P2;durP2;ratioP2
21424;SDS011;10873;51.132;16.848;2023-04-08T00:01:31;2.90;;;2.60;;
21424;SDS011;10873;51.132;16.848;2023-04-08T00:03:59;2.65;;;2.40;;
21424;SDS011;10873;51.132;16.848;2023-04-08T00:06:25;3.10;;;2.80;;
21424;SDS011;10873;51.132;16.848;2023-04-08T00:08:51;3.13;;;2.60;;
21424;SDS011;10873;51.132;16.848;2023-04-08T00:11:17;3.08;;;2.78;;
21424;SDS011;10873;51.132;16.848;2023-04-08T00:13:43;3.45;;;2.97;;
21424;SDS011;10873;51.132;16.848;2023-04-08T00:16:10;4.15;;;3.33;;
21424;SDS011;10873;51.132;16.848;2023-04-08T00:18:36;4.93;;;3.75;;
21424;SDS011;10873;51.132;16.848;2023-04-08T00:21:04;4.47;;;3.92;;
21424;SDS011;10873;51.132;16.848;2023-04-08T00:23:30;4.75;;;3.88;;
21424;SDS011;10873;51.132;16.848;2023-04-08T00:25:56;4.97;;;3.80;;
21424;SDS011;10873;51.132;16.848;2023-04-08T00:28:22;3.72;;;3.30;;
21424;SDS011;10873;51.132;16.848;2023-04-08T00:30:48;4.32;;;3.58;;
21424;SDS011;10873;51.132;16.848;2023-04-08T00:33:15;4.30;;;3.53;;
21424;SDS011;10873;51.132;16.848;2023-04-08T00:35:41;4.47;;;3.35;;
21424;SDS011;10873;51.132;16.848;2023-04-08T00:38:08;4.32;;;3.40;;
21424;SDS011;10873;51.132;16.848;2023-04-08T00:40:35;3.50;;;3.20;;
21424;SDS011;10873;51.132;16.848;2023-04-08T00:43:01;5.70;;;3.35;;
21424;SDS011;10873;51.132;16.848;2023-04-08T00:45:27;3.75;;;3.30;;
21424;SDS011;10873;51.132;16.848;2023-04-08T00:47:53;4.03;;;3.42;;
21424;SDS011;10873;51.132;16.848;2023-04-08T00:50:19;4.88;;;3.47;;
21424;SDS011;10873;51.132;16.848;2023-04-08T00:52:45;3.42;;;2.95;;
21424;SDS011;10873;51.132;16.848;2023-04-08T00:55:12;4.40;;;3.30;;
21424;SDS011;10873;51.132;16.848;2023-04-08T00:57:38;3.75;;;3.33;;
21424;SDS011;10873;51.132;16.848;2023-04-08T01:00:05;3.72;;;3.30;;
21424;SDS011;10873;51.132;16.848;2023-04-08T01:02:35;4.10;;;3.10;;
21424;SDS011;10873;51.132;16.848;2023-04-08T01:05:06;4.32;;;3.67;;
21424;SDS011;10873;51.132;16.848;2023-04-08T01:07:39;4.55;;;3.55;;
21424;SDS011;10873;51.132;16.848;2023-04-08T01:10:10;4.20;;;3.63;;
21424;SDS011;10873;51.132;16.848;2023-04-08T01:12:40;5.78;;;3.63;;
21424;SDS011;10873;51.132;16.848;2023-04-08T01:15:10;4.82;;;3.60;;
21424;SDS011;10873;51.132;16.848;2023-04-08T01:17:37;4.85;;;3.70;;
21424;SDS011;10873;51.132;16.848;2023-04-08T01:20:05;4.53;;;3.45;;
21424;SDS011;10873;51.132;16.848;2023-04-08T01:22:35;3.65;;;3.25;;
21424;SDS011;10873;51.132;16.848;2023-04-08T01:25:08;5.82;;;3.78;;
21424;SDS011;10873;51.132;16.848;2023-04-08T01:27:40;4.60;;;3.67;;
21424;SDS011;10873;51.132;16.848;2023-04-08T01:30:07;6.05;;;3.47;;
21424;SDS011;10873;51.132;16.848;2023-04-08T01:32:34;4.47;;;3.50;;
21424;SDS011;10873;51.132;16.848;2023-04-08T01:35:02;5.05;;;4.10;;
21424;SDS011;10873;51.132;16.848;2023-04-08T01:37:30;4.93;;;3.95;;
21424;SDS011;10873;51.132;16.848;2023-04-08T01:39:58;5.10;;;3.90;;
21424;SDS011;10873;51.132;16.848;2023-04-08T01:42:25;4.28;;;3.63;;
21424;SDS011;10873;51.132;16.848;2023-04-08T01:44:56;5.75;;;4.15;;
21424;SDS011;10873;51.132;16.848;2023-04-08T01:47:23;5.47;;;4.07;;
21424;SDS011;10873;51.132;16.848;2023-04-08T01:49:50;3.92;;;3.50;;
21424;SDS011;10873;51.132;16.848;2023-04-08T01:52:17;4.80;;;3.95;;
21424;SDS011;10873;51.132;16.848;2023-04-08T01:54:44;5.40;;;3.80;;
21424;SDS011;10873;51.132;16.848;2023-04-08T01:57:11;4.88;;;3.90;;
21424;SDS011;10873;51.132;16.848;2023-04-08T01:59:41;4.45;;;3.78;;
21424;SDS011;10873;51.132;16.848;2023-04-08T02:02:13;5.72;;;4.30;;
21424;SDS011;10873;51.132;16.848;2023-04-08T02:04:41;4.78;;;3.97;;
21424;SDS011;10873;51.132;16.848;2023-04-08T02:07:07;6.30;;;4.80;;
21424;SDS011;10873;51.132;16.848;2023-04-08T02:09:34;5.35;;;4.50;;
21424;SDS011;10873;51.132;16.848;2023-04-08T02:11:59;5.82;;;4.70;;
21424;SDS011;10873;51.132;16.848;2023-04-08T02:14:26;7.05;;;5.20;;
21424;SDS011;10873;51.132;16.848;2023-04-08T02:16:53;5.55;;;4.20;;
21424;SDS011;10873;51.132;16.848;2023-04-08T02:19:28;6.80;;;4.57;;
21424;SDS011;10873;51.132;16.848;2023-04-08T02:22:06;5.75;;;4.75;;
21424;SDS011;10873;51.132;16.848;2023-04-08T02:24:35;5.93;;;4.95;;
21424;SDS011;10873;51.132;16.848;2023-04-08T02:27:04;6.60;;;5.07;;
21424;SDS011;10873;51.132;16.848;2023-04-08T02:29:32;6.45;;;5.38;;
21424;SDS011;10873;51.132;16.848;2023-04-08T02:32:00;7.00;;;5.65;;
21424;SDS011;10873;51.132;16.848;2023-04-08T02:34:31;8.20;;;5.82;;
21424;SDS011;10873;51.132;16.848;2023-04-08T02:36:59;8.95;;;6.05;;
21424;SDS011;10873;51.132;16.848;2023-04-08T02:39:29;7.40;;;5.20;;
21424;SDS011;10873;51.132;16.848;2023-04-08T02:41:56;6.50;;;5.70;;
21424;SDS011;10873;51.132;16.848;2023-04-08T02:44:22;7.75;;;5.85;;
21424;SDS011;10873;51.132;16.848;2023-04-08T02:46:49;8.05;;;5.80;;
21424;SDS011;10873;51.132;16.848;2023-04-08T02:49:15;8.15;;;5.97;;
21424;SDS011;10873;51.132;16.848;2023-04-08T02:51:42;9.48;;;5.80;;
21424;SDS011;10873;51.132;16.848;2023-04-08T02:54:08;6.90;;;5.10;;
21424;SDS011;10873;51.132;16.848;2023-04-08T02:56:34;8.20;;;6.25;;
21424;SDS011;10873;51.132;16.848;2023-04-08T02:59:00;6.22;;;5.00;;
21424;SDS011;10873;51.132;16.848;2023-04-08T03:01:26;6.25;;;5.10;;
21424;SDS011;10873;51.132;16.848;2023-04-08T03:03:54;6.68;;;5.22;;
21424;SDS011;10873;51.132;16.848;2023-04-08T03:06:19;6.43;;;5.30;;
21424;SDS011;10873;51.132;16.848;2023-04-08T03:08:47;5.97;;;4.97;;
21424;SDS011;10873;51.132;16.848;2023-04-08T03:11:13;6.72;;;5.10;;
21424;SDS011;10873;51.132;16.848;2023-04-08T03:13:39;7.10;;;5.10;;
21424;SDS011;10873;51.132;16.848;2023-04-08T03:16:05;6.38;;;5.10;;
21424;SDS011;10873;51.132;16.848;2023-04-08T03:18:32;6.55;;;5.10;;
21424;SDS011;10873;51.132;16.848;2023-04-08T03:20:58;5.95;;;5.03;;
21424;SDS011;10873;51.132;16.848;2023-04-08T03:23:24;7.22;;;5.25;;
21424;SDS011;10873;51.132;16.848;2023-04-08T03:25:51;6.43;;;5.18;;
21424;SDS011;10873;51.132;16.848;2023-04-08T03:28:17;5.97;;;4.82;;
21424;SDS011;10873;51.132;16.848;2023-04-08T03:30:43;6.28;;;4.95;;
21424;SDS011;10873;51.132;16.848;2023-04-08T03:33:09;6.85;;;5.20;;
21424;SDS011;10873;51.132;16.848;2023-04-08T03:35:35;6.43;;;5.05;;
21424;SDS011;10873;51.132;16.848;2023-04-08T03:38:03;6.15;;;5.10;;
21424;SDS011;10873;51.132;16.848;2023-04-08T03:40:29;6.55;;;5.20;;
21424;SDS011;10873;51.132;16.848;2023-04-08T03:42:56;5.45;;;4.78;;
21424;SDS011;10873;51.132;16.848;2023-04-08T03:45:22;6.85;;;5.47;;
21424;SDS011;10873;51.132;16.848;2023-04-08T03:47:48;6.00;;;4.85;;
21424;SDS011;10873;51.132;16.848;2023-04-08T03:50:14;5.35;;;4.40;;
21424;SDS011;10873;51.132;16.848;2023-04-08T03:52:40;6.03;;;5.10;;
21424;SDS011;10873;51.132;16.848;2023-04-08T03:55:07;5.90;;;4.80;;
21424;SDS011;10873;51.132;16.848;2023-04-08T03:57:33;6.55;;;5.10;;
21424;SDS011;10873;51.132;16.848;2023-04-08T04:00:01;5.72;;;5.00;;
21424;SDS011;10873;51.132;16.848;2023-04-08T04:02:27;5.95;;;4.80;;
21424;SDS011;10873;51.132;16.848;2023-04-08T04:04:53;5.57;;;4.93;;
21424;SDS011;10873;51.132;16.848;2023-04-08T04:07:20;6.25;;;4.85;;
21424;SDS011;10873;51.132;16.848;2023-04-08T04:09:45;6.85;;;5.45;;
21424;SDS011;10873;51.132;16.848;2023-04-08T04:12:12;6.45;;;5.28;;
21424;SDS011;10873;51.132;16.848;2023-04-08T04:14:38;6.28;;;5.00;;
21424;SDS011;10873;51.132;16.848;2023-04-08T04:17:05;6.57;;;5.10;;
21424;SDS011;10873;51.132;16.848;2023-04-08T04:19:31;7.63;;;5.07;;
21424;SDS011;10873;51.132;16.848;2023-04-08T04:21:57;6.57;;;5.15;;
21424;SDS011;10873;51.132;16.848;2023-04-08T04:24:23;6.75;;;5.00;;
21424;SDS011;10873;51.132;16.848;2023-04-08T04:26:49;5.75;;;4.70;;
21424;SDS011;10873;51.132;16.848;2023-04-08T04:29:15;5.28;;;4.38;;
21424;SDS011;10873;51.132;16.848;2023-04-08T04:31:41;6.63;;;4.85;;
21424;SDS011;10873;51.132;16.848;2023-04-08T04:34:08;5.05;;;4.45;;
21424;SDS011;10873;51.132;16.848;2023-04-08T04:36:34;6.10;;;4.85;;
21424;SDS011;10873;51.132;16.848;2023-04-08T04:39:00;5.65;;;4.88;;
21424;SDS011;10873;51.132;16.848;2023-04-08T04:41:27;5.72;;;4.88;;
21424;SDS011;10873;51.132;16.848;2023-04-08T04:43:53;6.18;;;4.78;;
21424;SDS011;10873;51.132;16.848;2023-04-08T04:46:19;7.43;;;5.45;;
21424;SDS011;10873;51.132;16.848;2023-04-08T04:48:45;6.60;;;5.47;;
21424;SDS011;10873;51.132;16.848;2023-04-08T04:51:12;6.57;;;5.20;;
21424;SDS011;10873;51.132;16.848;2023-04-08T04:53:38;6.32;;;5.10;;
21424;SDS011;10873;51.132;16.848;2023-04-08T04:56:04;7.15;;;5.30;;
21424;SDS011;10873;51.132;16.848;2023-04-08T04:58:30;7.15;;;5.13;;
21424;SDS011;10873;51.132;16.848;2023-04-08T05:00:56;6.53;;;5.20;;
21424;SDS011;10873;51.132;16.848;2023-04-08T05:03:22;7.05;;;5.18;;
21424;SDS011;10873;51.132;16.848;2023-04-08T05:05:52;7.97;;;5.80;;
21424;SDS011;10873;51.132;16.848;2023-04-08T05:08:19;6.82;;;5.47;;
21424;SDS011;10873;51.132;16.848;2023-04-08T05:10:46;6.78;;;5.72;;
21424;SDS011;10873;51.132;16.848;2023-04-08T05:13:14;5.80;;;4.85;;
21424;SDS011;10873;51.132;16.848;2023-04-08T05:15:41;6.68;;;5.28;;
21424;SDS011;10873;51.132;16.848;2023-04-08T05:18:06;7.20;;;5.38;;
21424;SDS011;10873;51.132;16.848;2023-04-08T05:20:32;6.13;;;4.95;;
21424;SDS011;10873;51.132;16.848;2023-04-08T05:22:58;8.07;;;5.40;;
21424;SDS011;10873;51.132;16.848;2023-04-08T05:25:26;7.13;;;5.70;;
21424;SDS011;10873;51.132;16.848;2023-04-08T05:27:52;6.72;;;5.45;;
21424;SDS011;10873;51.132;16.848;2023-04-08T05:30:18;6.72;;;5.68;;
21424;SDS011;10873;51.132;16.848;2023-04-08T05:32:45;9.23;;;6.43;;
21424;SDS011;10873;51.132;16.848;2023-04-08T05:35:11;7.25;;;6.00;;
21424;SDS011;10873;51.132;16.848;2023-04-08T05:37:37;6.90;;;5.63;;
21424;SDS011;10873;51.132;16.848;2023-04-08T05:40:04;6.60;;;5.65;;
21424;SDS011;10873;51.132;16.848;2023-04-08T05:42:32;6.30;;;5.43;;
21424;SDS011;10873;51.132;16.848;2023-04-08T05:44:58;7.82;;;6.03;;
21424;SDS011;10873;51.132;16.848;2023-04-08T05:47:24;7.03;;;5.68;;
21424;SDS011;10873;51.132;16.848;2023-04-08T05:49:50;7.43;;;5.95;;
21424;SDS011;10873;51.132;16.848;2023-04-08T05:52:16;7.28;;;5.82;;
21424;SDS011;10873;51.132;16.848;2023-04-08T05:54:42;6.57;;;5.78;;
21424;SDS011;10873;51.132;16.848;2023-04-08T05:57:08;6.88;;;5.70;;
21424;SDS011;10873;51.132;16.848;2023-04-08T05:59:36;6.70;;;5.78;;
21424;SDS011;10873;51.132;16.848;2023-04-08T06:02:03;6.65;;;5.53;;
21424;SDS011;10873;51.132;16.848;2023-04-08T06:04:29;6.82;;;5.85;;
21424;SDS011;10873;51.132;16.848;2023-04-08T06:06:55;6.57;;;5.80;;
21424;SDS011;10873;51.132;16.848;2023-04-08T06:09:24;6.30;;;5.18;;
21424;SDS011;10873;51.132;16.848;2023-04-08T06:11:50;6.57;;;5.47;;
21424;SDS011;10873;51.132;16.848;2023-04-08T06:14:16;8.27;;;5.53;;
21424;SDS011;10873;51.132;16.848;2023-04-08T06:16:43;7.25;;;5.50;;
21424;SDS011;10873;51.132;16.848;2023-04-08T06:19:09;5.85;;;5.25;;
21424;SDS011;10873;51.132;16.848;2023-04-08T06:21:35;6.68;;;5.40;;
21424;SDS011;10873;51.132;16.848;2023-04-08T06:24:01;6.63;;;5.63;;
21424;SDS011;10873;51.132;16.848;2023-04-08T06:26:27;6.60;;;5.45;;
21424;SDS011;10873;51.132;16.848;2023-04-08T06:28:54;6.65;;;5.45;;
21424;SDS011;10873;51.132;16.848;2023-04-08T06:31:19;7.82;;;5.53;;
21424;SDS011;10873;51.132;16.848;2023-04-08T06:33:47;6.70;;;5.35;;
21424;SDS011;10873;51.132;16.848;2023-04-08T06:36:13;7.60;;;5.50;;
21424;SDS011;10873;51.132;16.848;2023-04-08T06:38:39;7.00;;;5.45;;
21424;SDS011;10873;51.132;16.848;2023-04-08T06:41:05;7.85;;;5.75;;
21424;SDS011;10873;51.132;16.848;2023-04-08T06:43:33;6.15;;;5.30;;
21424;SDS011;10873;51.132;16.848;2023-04-08T06:45:59;6.82;;;5.35;;
21424;SDS011;10873;51.132;16.848;2023-04-08T06:48:26;6.13;;;5.28;;
21424;SDS011;10873;51.132;16.848;2023-04-08T06:50:56;5.93;;;5.30;;
21424;SDS011;10873;51.132;16.848;2023-04-08T06:53:23;5.88;;;5.25;;
21424;SDS011;10873;51.132;16.848;2023-04-08T06:55:50;7.38;;;5.60;;
21424;SDS011;10873;51.132;16.848;2023-04-08T06:58:16;6.63;;;5.15;;
21424;SDS011;10873;51.132;16.848;2023-04-08T07:00:42;6.55;;;5.50;;
21424;SDS011;10873;51.132;16.848;2023-04-08T07:03:08;6.00;;;5.18;;
21424;SDS011;10873;51.132;16.848;2023-04-08T07:05:37;6.97;;;5.80;;
21424;SDS011;10873;51.132;16.848;2023-04-08T07:08:05;6.47;;;5.07;;
21424;SDS011;10873;51.132;16.848;2023-04-08T07:10:31;6.78;;;5.78;;
21424;SDS011;10873;51.132;16.848;2023-04-08T07:12:57;6.97;;;5.80;;
21424;SDS011;10873;51.132;16.848;2023-04-08T07:15:23;7.35;;;5.65;;
21424;SDS011;10873;51.132;16.848;2023-04-08T07:17:49;6.65;;;5.75;;
21424;SDS011;10873;51.132;16.848;2023-04-08T07:20:15;7.70;;;5.80;;
21424;SDS011;10873;51.132;16.848;2023-04-08T07:22:42;6.13;;;5.47;;
21424;SDS011;10873;51.132;16.848;2023-04-08T07:25:10;6.40;;;5.25;;
21424;SDS011;10873;51.132;16.848;2023-04-08T07:27:36;6.65;;;5.50;;
21424;SDS011;10873;51.132;16.848;2023-04-08T07:30:02;6.15;;;5.50;;
21424;SDS011;10873;51.132;16.848;2023-04-08T07:32:28;6.15;;;5.20;;
21424;SDS011;10873;51.132;16.848;2023-04-08T07:34:54;6.40;;;5.13;;
21424;SDS011;10873;51.132;16.848;2023-04-08T07:37:20;6.40;;;5.50;;
21424;SDS011;10873;51.132;16.848;2023-04-08T07:39:46;6.45;;;5.25;;
21424;SDS011;10873;51.132;16.848;2023-04-08T07:42:14;6.93;;;5.60;;
21424;SDS011;10873;51.132;16.848;2023-04-08T07:44:39;5.53;;;4.93;;
21424;SDS011;10873;51.132;16.848;2023-04-08T07:47:06;6.55;;;5.57;;
21424;SDS011;10873;51.132;16.848;2023-04-08T07:49:33;6.25;;;5.13;;
21424;SDS011;10873;51.132;16.848;2023-04-08T07:51:59;6.25;;;5.30;;
21424;SDS011;10873;51.132;16.848;2023-04-08T07:54:25;6.63;;;5.35;;
21424;SDS011;10873;51.132;16.848;2023-04-08T07:56:51;6.25;;;5.20;;
21424;SDS011;10873;51.132;16.848;2023-04-08T07:59:18;6.40;;;5.65;;
21424;SDS011;10873;51.132;16.848;2023-04-08T08:01:45;5.45;;;4.95;;
21424;SDS011;10873;51.132;16.848;2023-04-08T08:04:11;6.10;;;5.50;;
21424;SDS011;10873;51.132;16.848;2023-04-08T08:06:38;6.72;;;5.32;;
21424;SDS011;10873;51.132;16.848;2023-04-08T08:09:04;6.80;;;5.35;;
21424;SDS011;10873;51.132;16.848;2023-04-08T08:11:30;6.00;;;5.25;;
21424;SDS011;10873;51.132;16.848;2023-04-08T08:13:57;5.72;;;5.13;;
21424;SDS011;10873;51.132;16.848;2023-04-08T08:16:26;7.90;;;5.57;;
21424;SDS011;10873;51.132;16.848;2023-04-08T08:18:52;6.43;;;5.15;;
21424;SDS011;10873;51.132;16.848;2023-04-08T08:21:18;5.38;;;4.75;;
21424;SDS011;10873;51.132;16.848;2023-04-08T08:23:44;5.28;;;4.70;;
21424;SDS011;10873;51.132;16.848;2023-04-08T08:26:11;5.55;;;4.78;;
21424;SDS011;10873;51.132;16.848;2023-04-08T08:28:37;6.70;;;5.30;;
21424;SDS011;10873;51.132;16.848;2023-04-08T08:31:03;6.40;;;4.72;;
21424;SDS011;10873;51.132;16.848;2023-04-08T08:33:31;8.20;;;5.53;;
21424;SDS011;10873;51.132;16.848;2023-04-08T08:35:58;5.70;;;5.07;;
21424;SDS011;10873;51.132;16.848;2023-04-08T08:38:24;6.20;;;4.85;;
21424;SDS011;10873;51.132;16.848;2023-04-08T08:40:52;5.75;;;4.70;;
21424;SDS011;10873;51.132;16.848;2023-04-08T08:43:19;6.05;;;4.95;;
21424;SDS011;10873;51.132;16.848;2023-04-08T08:45:46;5.80;;;5.20;;
21424;SDS011;10873;51.132;16.848;2023-04-08T08:48:12;6.30;;;4.85;;
21424;SDS011;10873;51.132;16.848;2023-04-08T08:50:39;6.30;;;5.22;;
21424;SDS011;10873;51.132;16.848;2023-04-08T08:53:05;5.95;;;5.00;;
21424;SDS011;10873;51.132;16.848;2023-04-08T08:55:31;6.20;;;4.97;;
21424;SDS011;10873;51.132;16.848;2023-04-08T08:58:00;6.00;;;5.20;;
21424;SDS011;10873;51.132;16.848;2023-04-08T09:00:30;6.30;;;4.70;;
21424;SDS011;10873;51.132;16.848;2023-04-08T09:03:06;5.93;;;4.85;;
21424;SDS011;10873;51.132;16.848;2023-04-08T09:05:47;6.15;;;5.25;;
21424;SDS011;10873;51.132;16.848;2023-04-08T09:08:24;5.35;;;4.80;;
21424;SDS011;10873;51.132;16.848;2023-04-08T09:10:51;5.65;;;4.93;;
21424;SDS011;10873;51.132;16.848;2023-04-08T09:13:17;5.30;;;4.80;;
21424;SDS011;10873;51.132;16.848;2023-04-08T09:18:30;5.35;;;4.85;;
21424;SDS011;10873;51.132;16.848;2023-04-08T09:20:59;6.90;;;4.43;;
21424;SDS011;10873;51.132;16.848;2023-04-08T09:23:36;5.50;;;4.47;;
21424;SDS011;10873;51.132;16.848;2023-04-08T09:26:07;7.72;;;5.25;;
21424;SDS011;10873;51.132;16.848;2023-04-08T09:28:33;5.68;;;5.07;;
21424;SDS011;10873;51.132;16.848;2023-04-08T09:31:00;7.68;;;4.90;;
21424;SDS011;10873;51.132;16.848;2023-04-08T09:33:29;4.93;;;4.22;;
21424;SDS011;10873;51.132;16.848;2023-04-08T09:35:56;5.20;;;4.57;;
21424;SDS011;10873;51.132;16.848;2023-04-08T09:38:23;5.03;;;4.43;;
21424;SDS011;10873;51.132;16.848;2023-04-08T09:40:50;6.20;;;5.20;;
21424;SDS011;10873;51.132;16.848;2023-04-08T09:43:17;4.93;;;4.43;;
21424;SDS011;10873;51.132;16.848;2023-04-08T09:45:48;4.68;;;4.18;;
21424;SDS011;10873;51.132;16.848;2023-04-08T09:48:16;4.85;;;4.35;;
21424;SDS011;10873;51.132;16.848;2023-04-08T09:50:46;5.25;;;4.72;;
21424;SDS011;10873;51.132;16.848;2023-04-08T09:53:16;5.45;;;4.80;;
21424;SDS011;10873;51.132;16.848;2023-04-08T09:55:52;5.63;;;4.65;;
21424;SDS011;10873;51.132;16.848;2023-04-08T09:58:21;5.72;;;4.60;;
21424;SDS011;10873;51.132;16.848;2023-04-08T10:00:58;6.80;;;5.00;;
21424;SDS011;10873;51.132;16.848;2023-04-08T10:03:26;5.47;;;4.78;;
21424;SDS011;10873;51.132;16.848;2023-04-08T10:05:54;6.15;;;4.68;;
21424;SDS011;10873;51.132;16.848;2023-04-08T10:08:21;5.28;;;4.70;;
21424;SDS011;10873;51.132;16.848;2023-04-08T10:10:47;6.20;;;4.97;;
21424;SDS011;10873;51.132;16.848;2023-04-08T10:13:15;5.32;;;4.45;;
21424;SDS011;10873;51.132;16.848;2023-04-08T10:15:42;6.90;;;4.88;;
21424;SDS011;10873;51.132;16.848;2023-04-08T10:18:29;5.28;;;4.28;;
21424;SDS011;10873;51.132;16.848;2023-04-08T10:20:56;5.60;;;4.68;;
21424;SDS011;10873;51.132;16.848;2023-04-08T10:23:51;5.78;;;5.18;;
21424;SDS011;10873;51.132;16.848;2023-04-08T10:26:32;5.50;;;4.90;;
21424;SDS011;10873;51.132;16.848;2023-04-08T10:31:58;6.13;;;5.03;;
21424;SDS011;10873;51.132;16.848;2023-04-08T10:34:25;5.30;;;4.80;;
21424;SDS011;10873;51.132;16.848;2023-04-08T10:36:53;5.22;;;4.65;;
21424;SDS011;10873;51.132;16.848;2023-04-08T10:39:19;6.43;;;4.70;;
21424;SDS011;10873;51.132;16.848;2023-04-08T10:41:46;5.22;;;4.72;;
21424;SDS011;10873;51.132;16.848;2023-04-08T10:44:16;5.90;;;4.95;;
21424;SDS011;10873;51.132;16.848;2023-04-08T10:46:45;6.65;;;5.22;;
21424;SDS011;10873;51.132;16.848;2023-04-08T10:49:11;5.10;;;4.60;;
21424;SDS011;10873;51.132;16.848;2023-04-08T10:51:37;4.88;;;4.38;;
21424;SDS011;10873;51.132;16.848;2023-04-08T10:54:07;5.70;;;4.80;;
21424;SDS011;10873;51.132;16.848;2023-04-08T10:56:34;5.28;;;4.47;;
21424;SDS011;10873;51.132;16.848;2023-04-08T10:59:01;5.95;;;5.00;;
21424;SDS011;10873;51.132;16.848;2023-04-08T11:01:36;4.72;;;4.28;;
21424;SDS011;10873;51.132;16.848;2023-04-08T11:04:07;5.22;;;4.57;;
21424;SDS011;10873;51.132;16.848;2023-04-08T11:06:37;5.20;;;4.70;;
21424;SDS011;10873;51.132;16.848;2023-04-08T11:09:03;5.80;;;5.18;;
21424;SDS011;10873;51.132;16.848;2023-04-08T11:11:29;5.35;;;4.60;;
21424;SDS011;10873;51.132;16.848;2023-04-08T11:13:56;5.63;;;4.75;;
21424;SDS011;10873;51.132;16.848;2023-04-08T11:16:22;5.15;;;4.63;;
21424;SDS011;10873;51.132;16.848;2023-04-08T11:18:49;5.45;;;4.63;;
21424;SDS011;10873;51.132;16.848;2023-04-08T11:21:17;5.53;;;4.70;;
21424;SDS011;10873;51.132;16.848;2023-04-08T11:23:43;5.60;;;4.80;;
21424;SDS011;10873;51.132;16.848;2023-04-08T11:26:09;5.85;;;4.97;;
21424;SDS011;10873;51.132;16.848;2023-04-08T11:28:35;5.78;;;5.10;;
21424;SDS011;10873;51.132;16.848;2023-04-08T11:31:01;5.28;;;4.60;;
21424;SDS011;10873;51.132;16.848;2023-04-08T11:33:33;5.68;;;4.82;;
21424;SDS011;10873;51.132;16.848;2023-04-08T11:35:59;5.72;;;4.70;;
21424;SDS011;10873;51.132;16.848;2023-04-08T11:38:29;5.75;;;4.88;;
21424;SDS011;10873;51.132;16.848;2023-04-08T11:40:56;6.85;;;4.72;;
21424;SDS011;10873;51.132;16.848;2023-04-08T11:43:23;8.10;;;5.43;;
21424;SDS011;10873;51.132;16.848;2023-04-08T11:45:51;5.38;;;4.55;;
21424;SDS011;10873;51.132;16.848;2023-04-08T11:48:17;5.40;;;4.57;;
21424;SDS011;10873;51.132;16.848;2023-04-08T11:50:43;5.75;;;5.07;;
21424;SDS011;10873;51.132;16.848;2023-04-08T11:53:15;5.97;;;5.05;;
21424;SDS011;10873;51.132;16.848;2023-04-08T11:55:45;5.60;;;5.00;;
21424;SDS011;10873;51.132;16.848;2023-04-08T11:58:11;6.28;;;5.35;;
21424;SDS011;10873;51.132;16.848;2023-04-08T12:00:37;6.53;;;5.40;;
21424;SDS011;10873;51.132;16.848;2023-04-08T12:03:03;5.88;;;4.75;;
21424;SDS011;10873;51.132;16.848;2023-04-08T12:05:30;5.32;;;4.75;;
21424;SDS011;10873;51.132;16.848;2023-04-08T12:07:56;6.65;;;5.22;;
21424;SDS011;10873;51.132;16.848;2023-04-08T12:10:23;5.65;;;5.15;;
21424;SDS011;10873;51.132;16.848;2023-04-08T12:12:52;5.80;;;4.65;;
21424;SDS011;10873;51.132;16.848;2023-04-08T12:15:19;6.38;;;5.18;;
21424;SDS011;10873;51.132;16.848;2023-04-08T12:17:44;5.90;;;5.28;;
21424;SDS011;10873;51.132;16.848;2023-04-08T12:20:11;5.70;;;5.10;;
21424;SDS011;10873;51.132;16.848;2023-04-08T12:22:37;5.03;;;4.47;;
21424;SDS011;10873;51.132;16.848;2023-04-08T12:25:04;5.97;;;5.35;;
21424;SDS011;10873;51.132;16.848;2023-04-08T12:27:30;6.00;;;5.40;;
21424;SDS011;10873;51.132;16.848;2023-04-08T12:30:02;6.53;;;5.47;;
21424;SDS011;10873;51.132;16.848;2023-04-08T12:32:28;6.00;;;5.28;;
21424;SDS011;10873;51.132;16.848;2023-04-08T12:34:54;5.78;;;5.18;;
21424;SDS011;10873;51.132;16.848;2023-04-08T12:37:20;5.57;;;5.00;;
21424;SDS011;10873;51.132;16.848;2023-04-08T12:39:46;5.65;;;5.03;;
21424;SDS011;10873;51.132;16.848;2023-04-08T12:42:12;6.55;;;5.20;;
21424;SDS011;10873;51.132;16.848;2023-04-08T12:44:38;6.78;;;5.55;;
21424;SDS011;10873;51.132;16.848;2023-04-08T12:47:06;6.10;;;5.50;;
21424;SDS011;10873;51.132;16.848;2023-04-08T12:49:32;5.72;;;5.13;;
21424;SDS011;10873;51.132;16.848;2023-04-08T12:51:58;5.93;;;5.28;;
21424;SDS011;10873;51.132;16.848;2023-04-08T12:54:24;5.47;;;4.97;;
21424;SDS011;10873;51.132;16.848;2023-04-08T12:56:50;5.72;;;5.10;;
21424;SDS011;10873;51.132;16.848;2023-04-08T12:59:16;5.70;;;5.10;;
21424;SDS011;10873;51.132;16.848;2023-04-08T13:01:42;5.57;;;4.93;;
21424;SDS011;10873;51.132;16.848;2023-04-08T13:04:10;5.20;;;4.70;;
21424;SDS011;10873;51.132;16.848;2023-04-08T13:06:36;5.60;;;4.90;;
21424;SDS011;10873;51.132;16.848;2023-04-08T13:09:02;5.50;;;4.93;;
21424;SDS011;10873;51.132;16.848;2023-04-08T13:11:28;5.13;;;4.57;;
21424;SDS011;10873;51.132;16.848;2023-04-08T13:13:54;5.50;;;4.90;;
21424;SDS011;10873;51.132;16.848;2023-04-08T13:16:20;6.18;;;5.18;;
21424;SDS011;10873;51.132;16.848;2023-04-08T13:18:46;5.88;;;4.90;;
21424;SDS011;10873;51.132;16.848;2023-04-08T13:21:13;5.43;;;4.93;;
21424;SDS011;10873;51.132;16.848;2023-04-08T13:23:39;6.15;;;5.55;;
21424;SDS011;10873;51.132;16.848;2023-04-08T13:26:05;6.90;;;5.28;;
21424;SDS011;10873;51.132;16.848;2023-04-08T13:28:32;5.90;;;5.28;;
21424;SDS011;10873;51.132;16.848;2023-04-08T13:30:58;5.75;;;5.03;;
21424;SDS011;10873;51.132;16.848;2023-04-08T13:33:24;6.38;;;5.70;;
21424;SDS011;10873;51.132;16.848;2023-04-08T13:35:50;6.00;;;5.40;;
21424;SDS011;10873;51.132;16.848;2023-04-08T13:38:17;6.00;;;5.30;;
21424;SDS011;10873;51.132;16.848;2023-04-08T13:40:43;5.75;;;5.15;;
21424;SDS011;10873;51.132;16.848;2023-04-08T13:43:09;8.32;;;5.78;;
21424;SDS011;10873;51.132;16.848;2023-04-08T13:45:35;6.10;;;5.13;;
21424;SDS011;10873;51.132;16.848;2023-04-08T13:48:01;5.85;;;5.25;;
21424;SDS011;10873;51.132;16.848;2023-04-08T13:50:29;7.22;;;4.97;;
21424;SDS011;10873;51.132;16.848;2023-04-08T13:52:55;5.20;;;4.70;;
21424;SDS011;10873;51.132;16.848;2023-04-08T13:55:22;6.03;;;5.05;;
21424;SDS011;10873;51.132;16.848;2023-04-08T13:57:48;6.28;;;5.22;;
21424;SDS011;10873;51.132;16.848;2023-04-08T14:00:14;5.95;;;5.15;;
21424;SDS011;10873;51.132;16.848;2023-04-08T14:02:41;5.65;;;5.05;;
21424;SDS011;10873;51.132;16.848;2023-04-08T14:05:07;5.70;;;5.15;;
21424;SDS011;10873;51.132;16.848;2023-04-08T14:07:33;7.13;;;5.63;;
21424;SDS011;10873;51.132;16.848;2023-04-08T14:09:59;5.97;;;5.38;;
21424;SDS011;10873;51.132;16.848;2023-04-08T14:12:27;5.30;;;4.80;;
21424;SDS011;10873;51.132;16.848;2023-04-08T14:14:53;6.05;;;5.45;;
21424;SDS011;10873;51.132;16.848;2023-04-08T14:17:19;5.88;;;5.28;;
21424;SDS011;10873;51.132;16.848;2023-04-08T14:19:45;5.40;;;4.90;;
21424;SDS011;10873;51.132;16.848;2023-04-08T14:22:11;5.22;;;4.72;;
21424;SDS011;10873;51.132;16.848;2023-04-08T14:24:37;5.22;;;4.72;;
21424;SDS011;10873;51.132;16.848;2023-04-08T14:27:03;4.97;;;4.47;;
21424;SDS011;10873;51.132;16.848;2023-04-08T14:29:30;5.78;;;5.10;;
21424;SDS011;10873;51.132;16.848;2023-04-08T14:31:57;5.68;;;5.13;;
21424;SDS011;10873;51.132;16.848;2023-04-08T14:34:22;5.25;;;4.70;;
21424;SDS011;10873;51.132;16.848;2023-04-08T14:36:48;5.32;;;4.82;;
21424;SDS011;10873;51.132;16.848;2023-04-08T14:39:14;5.60;;;5.03;;